UAL1493 CYYC-KSFO
Flight info
| Callsign | UAL1493 |
|---|---|
| Flight time | N/A |
| Altitude | 40000 |
| Route | DUMRA Q890 ROPLA DCT GEG DCT PASST DCT MRRLO BDEGA4 |
| Aircraft | B772/H-SDE2E3FGHIJ5LORVWXY/LB1D1 |
Departure
| Time | 2026-05-07 20:05 |
|---|---|
| Airport | Calgary International Airport (CYYC) |
Arrival
| Time | N/A |
|---|---|
| Airport | San Francisco International Airport (KSFO) |
| Time | Latitude | Longitude | Altitude | Speed | Heading |
|---|---|---|---|---|---|
| 2026-05-07 19:23 | 51.12803 | -114.00253 | 3570 ft | 0 kts | 269° |
| 2026-05-07 19:49 | 51.12804 | -114.00230 | 3567 ft | 3 kts | 263° |
| 2026-05-07 19:49 | 51.12807 | -114.00199 | 3559 ft | 3 kts | 251° |
| 2026-05-07 19:50 | 51.12815 | -114.00170 | 3559 ft | 3 kts | 239° |
| 2026-05-07 19:50 | 51.12826 | -114.00143 | 3559 ft | 3 kts | 234° |
| 2026-05-07 19:50 | 51.12837 | -114.00117 | 3559 ft | 3 kts | 256° |
| 2026-05-07 19:50 | 51.12838 | -114.00087 | 3559 ft | 3 kts | 270° |
| 2026-05-07 19:51 | 51.12839 | -114.00059 | 3563 ft | 1 kts | 270° |
| 2026-05-07 19:51 | 51.12839 | -114.00055 | 3563 ft | 0 kts | 270° |
| 2026-05-07 19:55 | 51.12839 | -114.00061 | 3570 ft | 2 kts | 270° |
| 2026-05-07 19:55 | 51.12831 | -114.00110 | 3568 ft | 6 kts | 240° |
| 2026-05-07 19:56 | 51.12785 | -114.00140 | 3559 ft | 9 kts | 187° |
| 2026-05-07 19:56 | 51.12713 | -114.00144 | 3565 ft | 12 kts | 180° |
| 2026-05-07 19:56 | 51.12630 | -114.00112 | 3565 ft | 13 kts | 132° |
| 2026-05-07 19:56 | 51.12616 | -113.99961 | 3570 ft | 15 kts | 91° |
| 2026-05-07 19:57 | 51.12616 | -113.99783 | 3570 ft | 17 kts | 90° |
| 2026-05-07 19:57 | 51.12616 | -113.99583 | 3570 ft | 19 kts | 90° |
| 2026-05-07 19:57 | 51.12568 | -113.99435 | 3559 ft | 13 kts | 166° |
| 2026-05-07 19:57 | 51.12480 | -113.99444 | 3563 ft | 13 kts | 180° |
| 2026-05-07 19:58 | 51.12390 | -113.99445 | 3565 ft | 13 kts | 180° |
| 2026-05-07 19:58 | 51.12300 | -113.99445 | 3565 ft | 13 kts | 180° |
| 2026-05-07 19:58 | 51.12211 | -113.99445 | 3563 ft | 13 kts | 180° |
| 2026-05-07 19:58 | 51.12122 | -113.99445 | 3567 ft | 13 kts | 180° |
| 2026-05-07 19:59 | 51.12032 | -113.99445 | 3564 ft | 13 kts | 180° |
| 2026-05-07 19:59 | 51.11942 | -113.99446 | 3564 ft | 13 kts | 180° |
| 2026-05-07 19:59 | 51.11853 | -113.99447 | 3561 ft | 13 kts | 180° |
| 2026-05-07 19:59 | 51.11763 | -113.99446 | 3565 ft | 13 kts | 180° |
| 2026-05-07 20:00 | 51.11674 | -113.99445 | 3564 ft | 13 kts | 179° |
| 2026-05-07 20:00 | 51.11584 | -113.99446 | 3565 ft | 13 kts | 181° |
| 2026-05-07 20:00 | 51.11494 | -113.99447 | 3563 ft | 13 kts | 179° |
| 2026-05-07 20:00 | 51.11405 | -113.99447 | 3564 ft | 13 kts | 179° |
| 2026-05-07 20:01 | 51.11315 | -113.99447 | 3570 ft | 13 kts | 180° |
| 2026-05-07 20:01 | 51.11226 | -113.99448 | 3569 ft | 13 kts | 180° |
| 2026-05-07 20:01 | 51.11136 | -113.99448 | 3569 ft | 13 kts | 180° |
| 2026-05-07 20:01 | 51.11052 | -113.99418 | 3574 ft | 13 kts | 134° |
| 2026-05-07 20:02 | 51.11033 | -113.99284 | 3578 ft | 10 kts | 89° |
| 2026-05-07 20:02 | 51.11034 | -113.99245 | 3581 ft | 0 kts | 90° |
| 2026-05-07 20:03 | 51.11034 | -113.99244 | 3581 ft | 0 kts | 90° |
| 2026-05-07 20:03 | 51.11034 | -113.99228 | 3581 ft | 2 kts | 90° |
| 2026-05-07 20:03 | 51.11034 | -113.99192 | 3581 ft | 4 kts | 90° |
| 2026-05-07 20:04 | 51.11034 | -113.99137 | 3581 ft | 6 kts | 89° |
| 2026-05-07 20:04 | 51.11045 | -113.99065 | 3571 ft | 8 kts | 59° |
| 2026-05-07 20:04 | 51.11080 | -113.99039 | 3570 ft | 0 kts | 1° |
| 2026-05-07 20:05 | 51.11193 | -113.99035 | 3569 ft | 56 kts | 0° |
| 2026-05-07 20:05 | 51.11924 | -113.99038 | 3565 ft | 149 kts | 359° |
| 2026-05-07 20:05 | 51.13148 | -113.99027 | 4009 ft | 192 kts | 359° |
| 2026-05-07 20:05 | 51.14524 | -113.99015 | 5053 ft | 201 kts | 359° |
| 2026-05-07 20:06 | 51.15947 | -113.98986 | 5717 ft | 207 kts | 358° |
| 2026-05-07 20:06 | 51.17413 | -113.99008 | 6146 ft | 213 kts | 356° |
| 2026-05-07 20:06 | 51.18862 | -113.99633 | 6305 ft | 228 kts | 323° |
| 2026-05-07 20:06 | 51.19805 | -114.01768 | 6494 ft | 252 kts | 288° |
| 2026-05-07 20:07 | 51.19882 | -114.04635 | 6949 ft | 268 kts | 262° |
| 2026-05-07 20:07 | 51.19198 | -114.07446 | 7502 ft | 280 kts | 239° |
| 2026-05-07 20:07 | 51.17772 | -114.09595 | 8171 ft | 290 kts | 211° |
| 2026-05-07 20:07 | 51.15859 | -114.10635 | 8900 ft | 294 kts | 194° |
| 2026-05-07 20:08 | 51.13859 | -114.11180 | 9652 ft | 297 kts | 191° |
| 2026-05-07 20:08 | 51.11776 | -114.11641 | 10315 ft | 304 kts | 190° |
| 2026-05-07 20:08 | 51.09599 | -114.12131 | 10533 ft | 329 kts | 191° |
| 2026-05-07 20:08 | 51.07285 | -114.12687 | 10854 ft | 350 kts | 191° |
| 2026-05-07 20:09 | 51.04816 | -114.13312 | 11586 ft | 359 kts | 192° |
| 2026-05-07 20:09 | 51.02357 | -114.13960 | 12506 ft | 365 kts | 192° |
| 2026-05-07 20:09 | 50.99847 | -114.14640 | 13511 ft | 369 kts | 192° |
| 2026-05-07 20:10 | 50.94716 | -114.16050 | 15243 ft | 380 kts | 191° |
| 2026-05-07 20:10 | 50.92066 | -114.16531 | 16091 ft | 386 kts | 188° |
| 2026-05-07 20:10 | 50.89376 | -114.16986 | 16932 ft | 391 kts | 190° |
| 2026-05-07 20:10 | 50.86661 | -114.17577 | 17757 ft | 396 kts | 192° |
| 2026-05-07 20:11 | 50.83930 | -114.18307 | 18519 ft | 401 kts | 194° |
| 2026-05-07 20:11 | 50.81172 | -114.19138 | 19216 ft | 406 kts | 195° |
| 2026-05-07 20:11 | 50.78389 | -114.20024 | 19926 ft | 410 kts | 195° |
| 2026-05-07 20:11 | 50.75578 | -114.20937 | 20596 ft | 415 kts | 195° |
| 2026-05-07 20:12 | 50.72731 | -114.21862 | 21271 ft | 420 kts | 195° |
| 2026-05-07 20:12 | 50.69852 | -114.22790 | 21944 ft | 425 kts | 195° |
| 2026-05-07 20:12 | 50.66933 | -114.23726 | 22622 ft | 430 kts | 195° |
| 2026-05-07 20:12 | 50.63993 | -114.24737 | 23317 ft | 434 kts | 199° |
| 2026-05-07 20:13 | 50.61110 | -114.26141 | 23923 ft | 436 kts | 203° |
| 2026-05-07 20:13 | 50.58217 | -114.27670 | 24520 ft | 440 kts | 203° |
| 2026-05-07 20:13 | 50.55307 | -114.29212 | 25127 ft | 444 kts | 203° |
| 2026-05-07 20:13 | 50.54321 | -114.29732 | 25336 ft | 445 kts | 203° |
| 2026-05-07 20:14 | 50.52230 | -114.30825 | 25756 ft | 447 kts | 203° |
| 2026-05-07 20:14 | 50.50782 | -114.31577 | 26048 ft | 449 kts | 203° |
| 2026-05-07 20:14 | 50.50733 | -114.31602 | 26050 ft | 450 kts | 203° |
| 2026-05-07 20:15 | 50.47746 | -114.33143 | 26590 ft | 454 kts | 203° |
| 2026-05-07 20:15 | 50.47246 | -114.33400 | 26681 ft | 455 kts | 203° |
| 2026-05-07 20:15 | 50.46546 | -114.33759 | 26799 ft | 456 kts | 203° |
| 2026-05-07 20:15 | 50.43516 | -114.35312 | 27318 ft | 460 kts | 203° |
| 2026-05-07 20:16 | 50.40466 | -114.36874 | 27814 ft | 464 kts | 204° |
| 2026-05-07 20:16 | 50.37372 | -114.38460 | 28289 ft | 469 kts | 204° |
| 2026-05-07 20:16 | 50.34261 | -114.40058 | 28751 ft | 473 kts | 204° |
| 2026-05-07 20:16 | 50.31119 | -114.41671 | 29191 ft | 477 kts | 204° |
| 2026-05-07 20:17 | 50.27947 | -114.43297 | 29608 ft | 482 kts | 204° |
| 2026-05-07 20:17 | 50.24747 | -114.44933 | 30019 ft | 486 kts | 204° |
| 2026-05-07 20:17 | 50.21519 | -114.46575 | 30363 ft | 490 kts | 205° |
| 2026-05-07 20:17 | 50.18265 | -114.48224 | 30691 ft | 494 kts | 205° |
| 2026-05-07 20:18 | 50.14978 | -114.49885 | 30970 ft | 498 kts | 205° |
| 2026-05-07 20:18 | 50.11670 | -114.51555 | 31279 ft | 502 kts | 205° |
| 2026-05-07 20:18 | 50.08340 | -114.53235 | 31582 ft | 505 kts | 206° |
| 2026-05-07 20:18 | 50.04988 | -114.54923 | 31859 ft | 508 kts | 206° |
| 2026-05-07 20:19 | 50.04250 | -114.55294 | 31906 ft | 509 kts | 206° |
| 2026-05-07 20:19 | 50.02205 | -114.56321 | 32059 ft | 511 kts | 206° |
| 2026-05-07 20:19 | 49.98803 | -114.58026 | 32307 ft | 515 kts | 206° |
| 2026-05-07 20:20 | 49.95384 | -114.59736 | 32557 ft | 518 kts | 206° |
| 2026-05-07 20:20 | 49.91944 | -114.61453 | 32825 ft | 520 kts | 206° |
| 2026-05-07 20:20 | 49.88497 | -114.63170 | 33101 ft | 521 kts | 207° |
| 2026-05-07 20:20 | 49.85048 | -114.64887 | 33423 ft | 521 kts | 207° |
| 2026-05-07 20:21 | 49.81601 | -114.66597 | 33991 ft | 516 kts | 207° |
| 2026-05-07 20:21 | 49.78187 | -114.68290 | 34350 ft | 515 kts | 207° |
| 2026-05-07 20:21 | 49.74773 | -114.70011 | 34534 ft | 517 kts | 209° |
| 2026-05-07 20:21 | 49.71502 | -114.72187 | 34761 ft | 506 kts | 217° |
| 2026-05-07 20:22 | 49.68490 | -114.74885 | 35063 ft | 496 kts | 223° |
| 2026-05-07 20:22 | 49.65714 | -114.77947 | 35418 ft | 486 kts | 229° |
| 2026-05-07 20:22 | 49.63230 | -114.81390 | 35766 ft | 476 kts | 233° |
| 2026-05-07 20:22 | 49.60825 | -114.84899 | 36068 ft | 476 kts | 233° |
| 2026-05-07 20:23 | 49.58429 | -114.88407 | 36322 ft | 476 kts | 233° |
| 2026-05-07 20:23 | 49.56020 | -114.91920 | 36607 ft | 477 kts | 233° |
| 2026-05-07 20:23 | 49.53613 | -114.95410 | 36996 ft | 474 kts | 232° |
| 2026-05-07 20:23 | 49.51209 | -114.98872 | 37418 ft | 472 kts | 232° |
| 2026-05-07 20:24 | 49.48814 | -115.02302 | 37757 ft | 470 kts | 232° |
| 2026-05-07 20:24 | 49.46416 | -115.05731 | 38000 ft | 471 kts | 232° |
| 2026-05-07 20:24 | 49.44019 | -115.09151 | 38277 ft | 470 kts | 231° |
| 2026-05-07 20:24 | 49.41618 | -115.12569 | 38568 ft | 470 kts | 231° |
| 2026-05-07 20:25 | 49.40401 | -115.14298 | 38702 ft | 469 kts | 231° |
| 2026-05-07 20:25 | 49.37957 | -115.17768 | 38951 ft | 468 kts | 231° |
| 2026-05-07 20:25 | 49.35567 | -115.21157 | 39146 ft | 468 kts | 231° |
| 2026-05-07 20:26 | 49.33174 | -115.24548 | 39298 ft | 469 kts | 231° |
| 2026-05-07 20:26 | 49.31734 | -115.26586 | 39394 ft | 469 kts | 231° |
| 2026-05-07 20:27 | 49.28258 | -115.31499 | 39656 ft | 469 kts | 230° |
| 2026-05-07 20:27 | 49.26926 | -115.33380 | 39756 ft | 469 kts | 230° |
| 2026-05-07 20:27 | 49.24521 | -115.36770 | 39869 ft | 471 kts | 230° |
| 2026-05-07 20:28 | 49.22104 | -115.40175 | 39908 ft | 473 kts | 230° |
| 2026-05-07 20:28 | 49.17265 | -115.46970 | 39951 ft | 471 kts | 230° |
| 2026-05-07 20:29 | 49.12448 | -115.53712 | 39967 ft | 469 kts | 230° |
| 2026-05-07 20:29 | 49.07643 | -115.60425 | 39948 ft | 468 kts | 230° |
| 2026-05-07 20:30 | 49.02850 | -115.67105 | 39945 ft | 466 kts | 230° |
| 2026-05-07 20:30 | 48.98067 | -115.73749 | 39944 ft | 465 kts | 230° |
| 2026-05-07 20:31 | 48.93286 | -115.80374 | 39945 ft | 464 kts | 230° |
| 2026-05-07 20:31 | 48.88507 | -115.86978 | 39940 ft | 464 kts | 230° |
| 2026-05-07 20:32 | 48.83755 | -115.93528 | 39961 ft | 464 kts | 230° |
| 2026-05-07 20:32 | 48.78973 | -116.00101 | 39953 ft | 464 kts | 230° |
| 2026-05-07 20:33 | 48.74183 | -116.06667 | 39962 ft | 465 kts | 230° |
| 2026-05-07 20:33 | 48.69382 | -116.13237 | 39962 ft | 465 kts | 230° |
| 2026-05-07 20:34 | 48.64570 | -116.19798 | 39972 ft | 466 kts | 230° |